Terminal Aerodrome Forecast
Issued by NWS Wilmington, OH

Home | Current Version | Previous Version | Text Only | Print | Product List | Glossary On
Versions: 1 2 3 4 5 6 7 8 9 10 11 12 13 14 15 16 17 18 19
000
FTUS41 KILN 211140
TAFCMH
TAF
KCMH 211140Z 2112/2212 19006KT P6SM OVC025
      TEMPO 2112/2115 4SM -RA BR OVC015
     FM212200 20005KT 4SM BR VCSH OVC008
     FM220200 17003KT P6SM VCSH OVC006
      TEMPO 2204/2205 4SM -RA BR SCT006 OVC012
     FM220800 17005KT P6SM SCT015 OVC060 WS020/23040KT=

USA.gov is the U.S. government's official web portal to all federal, state and local government web resources and services.